Country
Station

 

Weather  for  Habarovsk  -  Russian Federation    Russian Federation

  
20 °C (68 °F)
    
 
 

Current METAR for Habarovsk is :

UHHH 230300Z 05006MPS 020V090 9999 FEW025 20/15 Q1010 R05R/090060 NOSIG RMK QFE751/1001

 

This is a report for Habarovsk - Russian Federation.
 
The report was made 19 minutes ago, at 03:00 UTC .
The wind was blowing at a speed of 6 meters per second (13.4 miles per hour) from northeast (050°), varying between north/northeast (020°) and east (090°).
 
The temperature was 20 °C (68 °F), with a dew-point at 15 °C (59 °F).
The atmospheric pressure was 1010 hPa (29.83 inHg).
The relative humidity was 72.9%.
 
There were a few clouds at a height of 762 meters (2500 feet).
 
The overall visibility was greater than 10 kilometers (6.2 miles).
 

 
 
 
 

Country :   A   B   C   D   E   F   G   H   I   J   K   L   M   N   O   P   Q   R   S   T   U   V   W   Y   Z

 

Site Info  |  Disclaimer  |  Credits  |  Privacy
Contact us  |  Add to favorites
© 2013-2019 METARs - All rights reserved